createdAt,value
2022-08-08T00:04:49.291Z,17.03
2022-08-08T00:10:28.201Z,17.13
2022-08-08T00:15:56.751Z,17.27
2022-08-08T00:21:05.397Z,17.15
2022-08-08T00:26:15.232Z,17.08
2022-08-08T00:32:20.845Z,17.04
2022-08-08T00:37:08.133Z,17.42
2022-08-08T00:42:42.698Z,17.86
2022-08-08T00:48:29.549Z,18.41
2022-08-08T00:53:43.489Z,18.57
2022-08-08T00:59:44.321Z,18.42
2022-08-08T01:05:29.273Z,18.48
2022-08-08T01:11:06.438Z,18.51
2022-08-08T01:16:55.350Z,18.83
2022-08-08T01:22:35.425Z,18.98
2022-08-08T01:28:00.303Z,18.80
2022-08-08T01:33:24.128Z,18.88
2022-08-08T01:38:49.531Z,19.21
2022-08-08T01:44:10.357Z,19.24
2022-08-08T01:49:37.592Z,19.34
2022-08-08T01:55:26.746Z,19.34
2022-08-08T02:00:48.824Z,19.14
2022-08-08T02:06:32.711Z,19.26
2022-08-08T02:11:59.010Z,19.37
2022-08-08T02:17:42.505Z,19.38
2022-08-08T02:23:04.243Z,19.30
2022-08-08T02:28:20.205Z,18.96
2022-08-08T02:33:41.486Z,18.91
2022-08-08T02:39:40.469Z,18.96
2022-08-08T02:45:25.986Z,18.70
2022-08-08T02:51:03.292Z,18.60
2022-08-08T02:56:47.832Z,18.35
2022-08-08T03:02:19.867Z,18.39
2022-08-08T03:07:41.781Z,18.52
2022-08-08T03:13:33.399Z,18.76
2022-08-08T03:18:49.296Z,18.90
2022-08-08T03:24:02.009Z,18.92
2022-08-08T03:29:18.722Z,18.88
2022-08-08T03:34:31.660Z,18.63
2022-08-08T03:39:51.740Z,18.46
2022-08-08T03:45:02.267Z,18.29
2022-08-08T03:50:27.353Z,18.19
2022-08-08T03:55:57.137Z,18.17
2022-08-08T04:01:23.069Z,18.02
2022-08-08T04:06:22.335Z,17.96
2022-08-08T04:11:27.074Z,17.95
2022-08-08T04:16:40.032Z,18.07
2022-08-08T04:21:47.204Z,18.24
2022-08-08T04:26:57.611Z,18.43
2022-08-08T04:32:03.129Z,18.57
2022-08-08T04:37:12.039Z,18.74
2022-08-08T04:42:17.476Z,19.09
2022-08-08T04:47:20.695Z,19.25
2022-08-08T04:52:33.926Z,19.45
2022-08-08T04:57:43.376Z,19.60
2022-08-08T05:02:47.433Z,19.94
2022-08-08T05:07:57.864Z,20.13
2022-08-08T05:13:02.771Z,20.38
2022-08-08T05:18:11.029Z,20.62
2022-08-08T05:23:16.891Z,20.94
2022-08-08T05:28:56.567Z,21.29
2022-08-08T05:33:49.218Z,21.53
2022-08-08T05:38:54.474Z,21.79
2022-08-08T05:44:10.989Z,22.12
2022-08-08T05:55:34.938Z,22.87
2022-08-08T06:00:58.567Z,23.21
2022-08-08T06:06:06.787Z,23.59
2022-08-08T06:11:16.693Z,24.02
2022-08-08T06:16:27.664Z,24.35
2022-08-08T06:21:51.561Z,24.74
2022-08-08T06:27:06.209Z,26.48
2022-08-08T06:32:18.473Z,29.23
2022-08-08T06:37:36.819Z,30.10
2022-08-08T06:43:03.638Z,31.49
2022-08-08T06:48:12.372Z,32.03
2022-08-08T06:53:20.534Z,31.91
2022-08-08T06:58:30.900Z,32.60
2022-08-08T07:04:40.534Z,32.52
2022-08-08T07:09:45.487Z,32.45
2022-08-08T07:15:22.983Z,32.12
2022-08-08T07:20:46.017Z,32.25
2022-08-08T07:26:00.250Z,32.64
2022-08-08T07:31:05.929Z,32.33
2022-08-08T07:36:12.539Z,32.83
2022-08-08T07:41:24.738Z,32.51
2022-08-08T07:46:32.849Z,32.20
2022-08-08T07:51:53.123Z,33.69
2022-08-08T07:57:19.931Z,32.89
2022-08-08T08:02:39.158Z,31.70
2022-08-08T08:07:57.110Z,32.49
2022-08-08T08:13:25.866Z,32.90
2022-08-08T08:18:55.712Z,33.15
2022-08-08T08:24:05.070Z,33.15
2022-08-08T08:29:09.522Z,31.32
2022-08-08T08:34:21.251Z,31.69
2022-08-08T08:40:00.390Z,30.49
2022-08-08T08:44:50.921Z,30.84
2022-08-08T08:49:54.127Z,30.07
2022-08-08T08:55:00.317Z,29.30
2022-08-08T09:00:14.751Z,27.85
2022-08-08T09:05:49.252Z,27.18
2022-08-08T09:10:48.000Z,27.63
2022-08-08T09:15:52.771Z,26.71
2022-08-08T09:21:59.697Z,26.50
2022-08-08T09:26:47.341Z,26.62
2022-08-08T09:32:04.479Z,26.33
2022-08-08T09:37:39.414Z,25.79
2022-08-08T09:42:51.682Z,25.18
2022-08-08T09:48:04.400Z,24.68
2022-08-08T09:53:32.014Z,24.15
2022-08-08T09:58:57.836Z,24.81
2022-08-08T10:04:04.836Z,26.47
2022-08-08T10:09:09.537Z,28.65
2022-08-08T10:14:28.623Z,28.84
2022-08-08T10:19:57.398Z,29.52
2022-08-08T10:25:15.880Z,29.13
2022-08-08T10:31:00.418Z,29.68
2022-08-08T10:36:08.342Z,28.59
2022-08-08T10:41:25.938Z,27.24
2022-08-08T10:46:39.672Z,26.06
2022-08-08T10:51:51.000Z,25.29
2022-08-08T10:57:08.889Z,24.79
2022-08-08T11:02:12.260Z,24.62
2022-08-08T11:08:30.983Z,24.86
2022-08-08T11:13:12.137Z,25.94
2022-08-08T11:18:16.484Z,25.95
2022-08-08T11:23:22.142Z,24.51
2022-08-08T11:28:29.856Z,23.22
2022-08-08T11:33:53.066Z,22.64
2022-08-08T11:39:02.894Z,22.53
2022-08-08T11:44:06.253Z,22.21
2022-08-08T11:49:14.284Z,22.34
2022-08-08T11:54:32.476Z,22.30
2022-08-08T11:59:57.736Z,22.49
2022-08-08T12:05:13.491Z,23.07
2022-08-08T12:10:18.522Z,23.63
2022-08-08T12:15:42.219Z,24.07
2022-08-08T12:20:53.374Z,24.16
2022-08-08T12:26:08.355Z,24.22
2022-08-08T12:31:11.477Z,23.92
2022-08-08T12:36:18.199Z,23.64
2022-08-08T12:41:35.414Z,23.29
2022-08-08T12:47:00.116Z,22.96
2022-08-08T12:52:14.222Z,22.97
2022-08-08T12:57:31.769Z,23.10
2022-08-08T13:02:51.512Z,22.81
2022-08-08T13:08:03.848Z,22.38
2022-08-08T13:13:08.646Z,22.08
2022-08-08T13:18:13.801Z,21.66
2022-08-08T13:23:41.271Z,21.51
2022-08-08T13:28:45.877Z,21.67
2022-08-08T13:33:54.347Z,21.78
2022-08-08T13:38:59.240Z,21.98
2022-08-08T13:44:04.936Z,22.37
2022-08-08T13:50:37.942Z,22.65
2022-08-08T13:54:49.662Z,22.90
2022-08-08T14:00:15.760Z,23.26
2022-08-08T14:05:28.403Z,23.56
2022-08-08T14:10:37.409Z,23.98
2022-08-08T14:15:46.359Z,24.55
2022-08-08T14:21:02.845Z,24.99
2022-08-08T14:26:10.629Z,25.65
2022-08-08T14:31:20.359Z,26.22
2022-08-08T14:36:36.054Z,27.50
2022-08-08T14:41:54.578Z,28.78
2022-08-08T14:47:01.500Z,29.51
2022-08-08T14:52:09.533Z,29.46
2022-08-08T14:57:16.340Z,28.38
2022-08-08T15:02:28.298Z,27.83
2022-08-08T15:07:39.150Z,27.72
2022-08-08T15:12:45.154Z,27.56
2022-08-08T15:17:50.141Z,27.19
2022-08-08T15:22:54.601Z,26.88
2022-08-08T15:28:32.513Z,26.54
2022-08-08T15:33:35.771Z,26.12
2022-08-08T15:38:50.173Z,26.16
2022-08-08T15:44:01.052Z,26.37
2022-08-08T15:49:05.480Z,26.35
2022-08-08T15:54:18.615Z,26.56
2022-08-08T16:00:18.047Z,26.64
2022-08-08T16:04:58.771Z,26.59
2022-08-08T16:13:10.646Z,26.89
2022-08-08T16:15:26.921Z,26.98
2022-08-08T16:20:36.727Z,26.98
2022-08-08T16:25:46.634Z,26.66
2022-08-08T16:30:58.448Z,26.24
2022-08-08T16:36:08.690Z,25.93
2022-08-08T16:41:20.173Z,25.73
2022-08-08T16:46:38.474Z,25.46
2022-08-08T16:55:19.333Z,25.24
2022-08-08T16:58:11.808Z,25.16
2022-08-08T17:02:39.577Z,25.16
2022-08-08T17:07:45.826Z,25.06
2022-08-08T17:12:53.456Z,24.96
2022-08-08T17:18:01.079Z,24.88
2022-08-08T17:23:16.659Z,24.73
2022-08-08T17:28:35.357Z,24.45
2022-08-08T17:34:53.765Z,24.32
2022-08-08T17:39:45.733Z,24.01
2022-08-08T17:44:28.738Z,23.46
2022-08-08T17:49:42.542Z,23.11
2022-08-08T17:54:47.203Z,22.92
2022-08-08T18:00:02.185Z,22.51
2022-08-08T18:05:08.795Z,22.06
2022-08-08T18:10:17.893Z,21.65
2022-08-08T18:15:21.343Z,21.26
2022-08-08T18:20:36.680Z,21.14
2022-08-08T18:25:51.459Z,20.97
2022-08-08T18:30:54.673Z,20.72
2022-08-08T18:36:03.925Z,20.62
2022-08-08T18:41:07.027Z,20.38
2022-08-08T18:46:55.823Z,20.21
2022-08-08T18:51:52.452Z,20.12
2022-08-08T18:56:58.379Z,19.98
2022-08-08T19:02:25.657Z,19.91
2022-08-08T19:07:29.613Z,19.79
2022-08-08T19:12:36.919Z,19.69
2022-08-08T19:18:31.103Z,19.68
2022-08-08T19:23:11.626Z,19.68
2022-08-08T19:28:18.058Z,19.66
2022-08-08T19:33:24.674Z,19.53
2022-08-08T19:38:27.767Z,19.53
2022-08-08T19:43:30.881Z,19.45
2022-08-08T19:48:36.939Z,19.29
2022-08-08T19:53:53.489Z,19.20
2022-08-08T19:58:57.565Z,19.24
2022-08-08T20:04:03.558Z,19.21
2022-08-08T20:09:08.764Z,19.29
2022-08-08T20:14:33.782Z,19.23
2022-08-08T20:19:42.264Z,19.10
2022-08-08T20:24:46.482Z,19.12
2022-08-08T20:30:00.233Z,19.04
2022-08-08T20:35:05.155Z,18.85
2022-08-08T20:40:11.541Z,18.75
2022-08-08T20:45:54.765Z,18.74
2022-08-08T20:50:42.881Z,18.71
2022-08-08T20:55:51.290Z,18.66
2022-08-08T21:00:54.459Z,18.68
2022-08-08T21:05:59.478Z,18.86
2022-08-08T21:11:02.901Z,18.77
2022-08-08T21:16:18.085Z,18.62
2022-08-08T21:21:39.550Z,18.53
2022-08-08T21:26:44.857Z,18.56
2022-08-08T21:31:58.899Z,18.81
2022-08-08T21:37:11.311Z,18.99
2022-08-08T21:42:19.487Z,19.08
2022-08-08T21:48:03.646Z,18.87
2022-08-08T21:54:22.980Z,18.76
2022-08-08T21:58:15.706Z,18.63
2022-08-08T22:03:20.350Z,18.49
2022-08-08T22:08:24.526Z,18.30
2022-08-08T22:13:47.803Z,18.26
2022-08-08T22:18:52.570Z,18.18
2022-08-08T22:23:56.335Z,17.99
2022-08-08T22:29:13.332Z,17.92
2022-08-08T22:34:27.034Z,17.88
2022-08-08T22:39:39.349Z,17.85
2022-08-08T22:44:50.206Z,17.85
2022-08-08T22:49:59.996Z,17.75
2022-08-08T22:55:06.391Z,17.74
2022-08-08T23:00:13.448Z,17.69
2022-08-08T23:05:16.809Z,17.60
2022-08-08T23:10:25.328Z,17.66
2022-08-08T23:16:39.187Z,17.62
2022-08-08T23:20:54.760Z,17.57
2022-08-08T23:25:59.456Z,17.60
2022-08-08T23:31:03.511Z,17.63
2022-08-08T23:36:08.959Z,17.54
2022-08-08T23:41:22.812Z,17.49
2022-08-08T23:49:05.809Z,17.39
2022-08-08T23:52:06.904Z,17.33
2022-08-08T23:57:25.681Z,17.27
